Turner, MI

2:41 PM EDT on July 05, 2015 (GMT -0400)
Pt. Lookout | | Change Station
CLOSE
Current Station
Personal Weather Station
Location: Au Gres, MI
Elevation: 610 ft
Nearby Weather Stations

Elev 610 ft 44.05 °N, 83.58 °W | Updated 5 minutes ago

Clear
Clear
75.3 °F
Feels Like 76 °F
N
0.0
Wind Variable Wind from SSW
Gusts 0.0 mph

Today
High -- | Low -- °F
--% Chance of Precip.
Yesterday
High -- | Low -- °F
Precip. -- in
5:57 AM 9:20 PM
Waning Gibbous, 83% visible
Pressure 30.10 in
Visibility 10.0 miles
Clouds Clear
Heat Index 76 °F
Dew Point 70 °F
Humidity 82%
Rainfall 0.22 in
Snow Depth Not available.
UV 11 out of 12
Pollen 4.20 out of 12
Air Quality Not available.
Flu Activity Not available.
METAR KOSC 051833Z AUTO 12007KT 10SM CLR 23/13 A3010 RMK AO2 T02400138

More Conditions Fewer Conditions

Pressure 30.10 in
Visibility 10.0 miles
Clouds Clear
Heat Index 76 °F
Dew Point 70 °F
Humidity 82%
Rainfall 0.22 in
Snow Depth Not available.
UV 11 out of 12
Pollen 4.20 out of 12
Air Quality Not available.
Flu Activity Not available.
METAR KOSC 051833Z AUTO 12007KT 10SM CLR 23/13 A3010 RMK AO2 T02400138

More Conditions Fewer Conditions

Nowcast | as of 2:00 PM EDT on July 5, 2015

Mostly clear. South winds 7 mph. At 5 PM...mostly clear. Temperature 82. Southeast winds 9 mph. Mostly clear. Mostly clear.

×

10-Day Weather Forecast

×

Almanac

Astronomy

Jul. 05, 2015 Rise Set
Actual Time
Civil Twilight
Nautical Twilight
Astronomical Twilight
Moon
Length of Visible Light
Length of Day
Tomorrow will be .
, % of the Moon is Illuminated

Today's Extremes

State Highs State Lows

Community

WunderPhotos

Upload Photos

1,835,346 photos uploaded!

WunderBlogs® & News

Nearby

Air Quality

  Air Quality AQ Index Pollutant
Not available.

Snow Depth

Station Depth Elevation

Earthquake Activity

City Distance Mag. Time & Date
Minimum magnitude displayed is 2.5.

Coastal Water Temperatures

Place Temperature

Stations

Nearby Weather Stations

Station Location Temp. Windchill Dew Point Humidity Wind Precip. Elev Updated Type